sensor_id;sensor_type;location;lat;lon;timestamp;P1;durP1;ratioP1;P2;durP2;ratioP2
64502;SDS011;50971;51.940;21.258;2024-02-04T00:04:37;5.30;;;3.40;;
64502;SDS011;50971;51.940;21.258;2024-02-04T00:14:39;7.10;;;2.50;;
64502;SDS011;50971;51.940;21.258;2024-02-04T00:24:42;2.90;;;1.50;;
64502;SDS011;50971;51.940;21.258;2024-02-04T00:34:44;6.20;;;2.10;;
64502;SDS011;50971;51.940;21.258;2024-02-04T00:44:46;6.10;;;2.10;;
64502;SDS011;50971;51.940;21.258;2024-02-04T00:54:47;9.10;;;2.50;;
64502;SDS011;50971;51.940;21.258;2024-02-04T01:04:49;2.90;;;1.70;;
64502;SDS011;50971;51.940;21.258;2024-02-04T01:14:53;4.60;;;2.30;;
64502;SDS011;50971;51.940;21.258;2024-02-04T01:24:54;6.40;;;2.60;;
64502;SDS011;50971;51.940;21.258;2024-02-04T01:34:56;5.80;;;2.80;;
64502;SDS011;50971;51.940;21.258;2024-02-04T01:44:58;4.90;;;2.30;;
64502;SDS011;50971;51.940;21.258;2024-02-04T01:55:00;3.80;;;2.10;;
64502;SDS011;50971;51.940;21.258;2024-02-04T02:05:05;5.20;;;2.50;;
64502;SDS011;50971;51.940;21.258;2024-02-04T02:15:15;3.40;;;1.40;;
64502;SDS011;50971;51.940;21.258;2024-02-04T02:25:21;4.60;;;1.70;;
64502;SDS011;50971;51.940;21.258;2024-02-04T02:35:24;6.50;;;1.80;;
64502;SDS011;50971;51.940;21.258;2024-02-04T02:45:26;5.00;;;1.90;;
64502;SDS011;50971;51.940;21.258;2024-02-04T02:55:29;3.30;;;1.80;;
64502;SDS011;50971;51.940;21.258;2024-02-04T03:05:31;7.00;;;2.10;;
64502;SDS011;50971;51.940;21.258;2024-02-04T03:15:33;3.20;;;1.50;;
64502;SDS011;50971;51.940;21.258;2024-02-04T03:25:36;4.00;;;2.00;;
64502;SDS011;50971;51.940;21.258;2024-02-04T03:35:38;2.50;;;1.30;;
64502;SDS011;50971;51.940;21.258;2024-02-04T03:45:39;6.50;;;2.10;;
64502;SDS011;50971;51.940;21.258;2024-02-04T03:55:42;3.00;;;1.90;;
64502;SDS011;50971;51.940;21.258;2024-02-04T04:05:44;4.10;;;1.80;;
64502;SDS011;50971;51.940;21.258;2024-02-04T04:15:45;5.10;;;2.10;;
64502;SDS011;50971;51.940;21.258;2024-02-04T04:25:47;6.70;;;1.70;;
64502;SDS011;50971;51.940;21.258;2024-02-04T04:35:49;3.60;;;1.60;;
64502;SDS011;50971;51.940;21.258;2024-02-04T04:45:51;5.20;;;1.90;;
64502;SDS011;50971;51.940;21.258;2024-02-04T04:55:52;8.60;;;2.00;;
64502;SDS011;50971;51.940;21.258;2024-02-04T05:05:54;7.20;;;1.80;;
64502;SDS011;50971;51.940;21.258;2024-02-04T05:15:56;4.00;;;1.80;;
64502;SDS011;50971;51.940;21.258;2024-02-04T05:25:58;2.60;;;1.30;;
64502;SDS011;50971;51.940;21.258;2024-02-04T05:36:06;4.00;;;1.90;;
64502;SDS011;50971;51.940;21.258;2024-02-04T05:46:08;3.50;;;1.30;;
64502;SDS011;50971;51.940;21.258;2024-02-04T05:56:10;2.50;;;1.20;;
64502;SDS011;50971;51.940;21.258;2024-02-04T06:06:15;2.00;;;1.10;;
64502;SDS011;50971;51.940;21.258;2024-02-04T06:16:19;3.10;;;1.50;;
64502;SDS011;50971;51.940;21.258;2024-02-04T06:26:21;3.40;;;1.30;;
64502;SDS011;50971;51.940;21.258;2024-02-04T06:36:22;3.80;;;1.20;;
64502;SDS011;50971;51.940;21.258;2024-02-04T06:46:27;4.60;;;1.60;;
64502;SDS011;50971;51.940;21.258;2024-02-04T06:56:32;3.40;;;1.50;;
64502;SDS011;50971;51.940;21.258;2024-02-04T07:06:34;6.00;;;1.60;;
64502;SDS011;50971;51.940;21.258;2024-02-04T07:16:36;3.80;;;1.60;;
64502;SDS011;50971;51.940;21.258;2024-02-04T07:26:37;8.20;;;1.90;;
64502;SDS011;50971;51.940;21.258;2024-02-04T07:36:39;3.50;;;1.70;;
64502;SDS011;50971;51.940;21.258;2024-02-04T07:46:41;3.80;;;1.70;;
64502;SDS011;50971;51.940;21.258;2024-02-04T07:56:43;2.80;;;1.50;;
64502;SDS011;50971;51.940;21.258;2024-02-04T08:06:45;6.80;;;2.00;;
64502;SDS011;50971;51.940;21.258;2024-02-04T08:16:46;5.60;;;1.80;;
64502;SDS011;50971;51.940;21.258;2024-02-04T08:26:51;4.20;;;1.70;;
64502;SDS011;50971;51.940;21.258;2024-02-04T08:36:54;3.50;;;1.70;;
64502;SDS011;50971;51.940;21.258;2024-02-04T08:46:56;6.20;;;2.10;;
64502;SDS011;50971;51.940;21.258;2024-02-04T08:56:58;5.40;;;2.00;;
64502;SDS011;50971;51.940;21.258;2024-02-04T09:07:00;7.80;;;2.30;;
64502;SDS011;50971;51.940;21.258;2024-02-04T09:17:02;3.40;;;1.60;;
64502;SDS011;50971;51.940;21.258;2024-02-04T09:27:06;7.30;;;2.70;;
64502;SDS011;50971;51.940;21.258;2024-02-04T09:37:08;4.60;;;2.10;;
64502;SDS011;50971;51.940;21.258;2024-02-04T09:47:09;5.70;;;2.20;;
64502;SDS011;50971;51.940;21.258;2024-02-04T09:57:13;6.70;;;2.20;;
64502;SDS011;50971;51.940;21.258;2024-02-04T10:07:16;5.50;;;2.40;;
64502;SDS011;50971;51.940;21.258;2024-02-04T10:17:20;5.30;;;2.20;;
64502;SDS011;50971;51.940;21.258;2024-02-04T10:27:23;5.90;;;2.40;;
64502;SDS011;50971;51.940;21.258;2024-02-04T10:37:36;6.50;;;2.10;;
64502;SDS011;50971;51.940;21.258;2024-02-04T10:47:38;5.80;;;2.80;;
64502;SDS011;50971;51.940;21.258;2024-02-04T10:57:41;6.80;;;2.30;;
64502;SDS011;50971;51.940;21.258;2024-02-04T11:07:43;6.60;;;2.70;;
64502;SDS011;50971;51.940;21.258;2024-02-04T11:17:57;4.20;;;2.30;;
64502;SDS011;50971;51.940;21.258;2024-02-04T11:28:07;5.60;;;2.10;;
64502;SDS011;50971;51.940;21.258;2024-02-04T11:38:10;4.30;;;1.80;;
64502;SDS011;50971;51.940;21.258;2024-02-04T11:48:12;7.80;;;2.50;;
64502;SDS011;50971;51.940;21.258;2024-02-04T11:58:15;8.10;;;2.90;;
64502;SDS011;50971;51.940;21.258;2024-02-04T12:08:20;7.30;;;2.70;;
64502;SDS011;50971;51.940;21.258;2024-02-04T12:18:23;12.30;;;5.20;;
64502;SDS011;50971;51.940;21.258;2024-02-04T12:28:25;19.30;;;7.30;;
64502;SDS011;50971;51.940;21.258;2024-02-04T12:38:27;24.00;;;7.90;;
64502;SDS011;50971;51.940;21.258;2024-02-04T12:48:29;8.50;;;4.00;;
64502;SDS011;50971;51.940;21.258;2024-02-04T12:58:31;10.50;;;5.10;;
64502;SDS011;50971;51.940;21.258;2024-02-04T13:08:32;10.10;;;6.40;;
64502;SDS011;50971;51.940;21.258;2024-02-04T13:18:34;7.40;;;4.10;;
64502;SDS011;50971;51.940;21.258;2024-02-04T13:28:37;15.90;;;5.90;;
64502;SDS011;50971;51.940;21.258;2024-02-04T13:38:40;6.80;;;2.80;;
64502;SDS011;50971;51.940;21.258;2024-02-04T13:48:43;6.00;;;3.10;;
64502;SDS011;50971;51.940;21.258;2024-02-04T13:58:45;4.90;;;2.40;;
64502;SDS011;50971;51.940;21.258;2024-02-04T14:08:47;5.30;;;2.50;;
64502;SDS011;50971;51.940;21.258;2024-02-04T14:18:49;3.80;;;2.70;;
64502;SDS011;50971;51.940;21.258;2024-02-04T14:28:51;5.50;;;2.40;;
64502;SDS011;50971;51.940;21.258;2024-02-04T14:38:53;6.90;;;2.50;;
64502;SDS011;50971;51.940;21.258;2024-02-04T14:48:55;6.00;;;3.00;;
64502;SDS011;50971;51.940;21.258;2024-02-04T14:58:57;5.10;;;3.20;;
64502;SDS011;50971;51.940;21.258;2024-02-04T15:08:58;3.80;;;2.00;;
64502;SDS011;50971;51.940;21.258;2024-02-04T15:19:01;5.00;;;2.30;;
64502;SDS011;50971;51.940;21.258;2024-02-04T15:29:03;3.50;;;2.00;;
64502;SDS011;50971;51.940;21.258;2024-02-04T15:39:05;2.90;;;1.70;;
64502;SDS011;50971;51.940;21.258;2024-02-04T15:49:07;3.30;;;1.90;;
64502;SDS011;50971;51.940;21.258;2024-02-04T15:59:14;3.10;;;2.20;;
64502;SDS011;50971;51.940;21.258;2024-02-04T16:09:24;6.50;;;3.20;;
64502;SDS011;50971;51.940;21.258;2024-02-04T16:19:30;4.40;;;2.30;;
64502;SDS011;50971;51.940;21.258;2024-02-04T16:29:33;3.60;;;2.10;;
64502;SDS011;50971;51.940;21.258;2024-02-04T16:39:35;3.90;;;1.90;;
64502;SDS011;50971;51.940;21.258;2024-02-04T16:49:38;8.00;;;4.70;;
64502;SDS011;50971;51.940;21.258;2024-02-04T16:59:41;4.60;;;2.30;;
64502;SDS011;50971;51.940;21.258;2024-02-04T17:09:47;3.80;;;2.10;;
64502;SDS011;50971;51.940;21.258;2024-02-04T17:20:12;4.20;;;2.40;;
64502;SDS011;50971;51.940;21.258;2024-02-04T17:30:17;4.20;;;2.40;;
64502;SDS011;50971;51.940;21.258;2024-02-04T17:40:19;5.00;;;2.50;;
64502;SDS011;50971;51.940;21.258;2024-02-04T17:50:22;3.10;;;1.50;;
64502;SDS011;50971;51.940;21.258;2024-02-04T18:00:28;4.80;;;2.40;;
64502;SDS011;50971;51.940;21.258;2024-02-04T18:10:30;3.60;;;1.70;;
64502;SDS011;50971;51.940;21.258;2024-02-04T18:20:35;4.00;;;2.60;;
64502;SDS011;50971;51.940;21.258;2024-02-04T18:30:37;4.80;;;2.20;;
64502;SDS011;50971;51.940;21.258;2024-02-04T18:40:39;3.50;;;2.00;;
64502;SDS011;50971;51.940;21.258;2024-02-04T18:50:41;2.40;;;1.70;;
64502;SDS011;50971;51.940;21.258;2024-02-04T19:00:43;4.90;;;1.90;;
64502;SDS011;50971;51.940;21.258;2024-02-04T19:10:49;7.70;;;2.60;;
64502;SDS011;50971;51.940;21.258;2024-02-04T19:20:52;3.40;;;1.90;;
64502;SDS011;50971;51.940;21.258;2024-02-04T19:30:55;8.00;;;2.10;;
64502;SDS011;50971;51.940;21.258;2024-02-04T19:40:57;5.00;;;2.10;;
64502;SDS011;50971;51.940;21.258;2024-02-04T19:50:59;3.50;;;1.70;;
64502;SDS011;50971;51.940;21.258;2024-02-04T20:01:00;5.40;;;2.40;;
64502;SDS011;50971;51.940;21.258;2024-02-04T20:11:02;2.50;;;1.70;;
64502;SDS011;50971;51.940;21.258;2024-02-04T20:21:04;3.40;;;1.70;;
64502;SDS011;50971;51.940;21.258;2024-02-04T20:31:06;4.00;;;1.90;;
64502;SDS011;50971;51.940;21.258;2024-02-04T20:41:08;2.80;;;1.60;;
64502;SDS011;50971;51.940;21.258;2024-02-04T20:51:10;3.80;;;1.60;;
64502;SDS011;50971;51.940;21.258;2024-02-04T21:01:13;2.80;;;1.90;;
64502;SDS011;50971;51.940;21.258;2024-02-04T21:11:22;4.60;;;2.70;;
64502;SDS011;50971;51.940;21.258;2024-02-04T21:21:24;4.40;;;2.30;;
64502;SDS011;50971;51.940;21.258;2024-02-04T21:31:26;4.10;;;1.80;;
64502;SDS011;50971;51.940;21.258;2024-02-04T21:41:28;4.60;;;2.10;;
64502;SDS011;50971;51.940;21.258;2024-02-04T21:51:40;3.60;;;1.80;;
64502;SDS011;50971;51.940;21.258;2024-02-04T22:01:42;4.70;;;2.50;;
64502;SDS011;50971;51.940;21.258;2024-02-04T22:11:45;6.30;;;2.20;;
64502;SDS011;50971;51.940;21.258;2024-02-04T22:21:48;4.60;;;2.50;;
64502;SDS011;50971;51.940;21.258;2024-02-04T22:31:50;3.60;;;2.20;;
64502;SDS011;50971;51.940;21.258;2024-02-04T22:41:52;3.20;;;1.40;;
64502;SDS011;50971;51.940;21.258;2024-02-04T22:51:54;7.00;;;2.60;;
64502;SDS011;50971;51.940;21.258;2024-02-04T23:01:56;6.50;;;1.90;;
64502;SDS011;50971;51.940;21.258;2024-02-04T23:11:59;3.40;;;2.00;;
64502;SDS011;50971;51.940;21.258;2024-02-04T23:22:01;5.80;;;2.30;;
64502;SDS011;50971;51.940;21.258;2024-02-04T23:32:03;5.70;;;2.70;;
64502;SDS011;50971;51.940;21.258;2024-02-04T23:42:05;4.20;;;1.90;;
64502;SDS011;50971;51.940;21.258;2024-02-04T23:52:07;4.80;;;2.60;;
